createdAt,value
2018-04-12T00:01:44.181Z,11.57
2018-04-12T00:06:47.220Z,10.80
2018-04-12T00:11:49.797Z,11.63
2018-04-12T00:16:52.336Z,10.83
2018-04-12T00:21:54.874Z,11.60
2018-04-12T00:26:57.411Z,11.20
2018-04-12T00:32:00.702Z,10.80
2018-04-12T00:37:04.022Z,10.40
2018-04-12T00:42:07.097Z,10.83
2018-04-12T00:47:09.728Z,11.43
2018-04-12T00:52:12.585Z,10.50
2018-04-12T00:57:15.114Z,10.43
2018-04-12T01:02:18.487Z,10.70
2018-04-12T01:07:21.403Z,11.00
2018-04-12T01:12:23.933Z,10.90
2018-04-12T01:17:27.180Z,9.90
2018-04-12T01:22:29.686Z,10.70
2018-04-12T01:27:33.111Z,10.90
2018-04-12T01:32:35.671Z,10.83
2018-04-12T01:37:38.990Z,9.90
2018-04-12T01:42:41.617Z,10.20
2018-04-12T01:47:44.181Z,10.90
2018-04-12T01:52:46.759Z,11.27
2018-04-12T01:57:50.108Z,10.20
2018-04-12T02:02:52.646Z,10.37
2018-04-12T02:07:55.244Z,10.33
2018-04-12T02:12:57.917Z,9.43
2018-04-12T02:18:00.660Z,9.50
2018-04-12T02:23:03.187Z,10.50
2018-04-12T02:28:06.487Z,9.80
2018-04-12T02:33:08.997Z,9.13
2018-04-12T02:38:11.524Z,9.77
2018-04-12T02:43:14.041Z,10.13
2018-04-12T02:48:17.334Z,9.67
2018-04-12T02:53:19.868Z,9.40
2018-04-12T02:58:22.393Z,9.70
2018-04-12T03:03:24.956Z,10.10
2018-04-12T03:08:28.267Z,8.67
2018-04-12T03:13:30.948Z,9.13
2018-04-12T03:18:34.242Z,10.10
2018-04-12T03:23:37.548Z,10.23
2018-04-12T03:28:40.107Z,8.30
2018-04-12T03:33:42.633Z,9.23
2018-04-12T03:38:45.231Z,8.83
2018-04-12T03:43:47.768Z,9.30
2018-04-12T03:48:50.410Z,9.53
2018-04-12T03:53:53.522Z,8.93
2018-04-12T03:58:56.040Z,8.00
2018-04-12T04:03:58.620Z,9.10
2018-04-12T04:09:01.149Z,8.47
2018-04-12T04:14:03.660Z,8.67
2018-04-12T04:19:18.060Z,8.00
2018-04-12T04:24:20.684Z,8.60
2018-04-12T04:29:23.225Z,8.90
2018-04-12T04:34:26.014Z,9.00
2018-04-12T04:39:28.899Z,9.10
2018-04-12T04:44:31.412Z,9.30
2018-04-12T04:49:34.959Z,9.10
2018-04-12T04:54:37.490Z,8.53
2018-04-12T04:59:40.326Z,8.17
2018-04-12T05:04:42.951Z,8.70
2018-04-12T05:09:45.620Z,9.40
2018-04-12T05:14:48.143Z,7.90
2018-04-12T05:19:50.710Z,8.80
2018-04-12T05:24:53.329Z,8.67
2018-04-12T05:29:55.869Z,8.30
2018-04-12T05:34:58.635Z,8.73
2018-04-12T05:40:01.531Z,8.13
2018-04-12T05:45:04.063Z,8.53
2018-04-12T05:50:06.760Z,8.27
2018-04-12T05:55:09.474Z,8.13
2018-04-12T06:00:12.057Z,7.90
2018-04-12T06:05:15.618Z,7.93
2018-04-12T06:10:18.992Z,8.53
2018-04-12T06:15:21.634Z,8.87
2018-04-12T06:20:25.026Z,8.43
2018-04-12T06:25:27.567Z,8.33
2018-04-12T06:30:30.140Z,8.03
2018-04-12T06:35:32.682Z,7.90
2018-04-12T06:40:35.224Z,7.97
2018-04-12T06:45:37.871Z,7.67
2018-04-12T06:50:41.199Z,8.53
2018-04-12T06:55:43.797Z,7.23
2018-04-12T07:00:46.317Z,8.10
2018-04-12T07:05:48.863Z,8.60
2018-04-12T07:10:51.600Z,8.67
2018-04-12T07:15:54.936Z,7.30
2018-04-12T07:20:57.470Z,7.67
2018-04-12T07:26:00.224Z,7.80
2018-04-12T07:31:03.192Z,7.17
2018-04-12T07:36:05.780Z,7.03
2018-04-12T07:41:09.018Z,7.07
2018-04-12T07:46:11.563Z,7.00
2018-04-12T07:51:14.189Z,7.70
2018-04-12T07:56:16.824Z,8.00
2018-04-12T08:01:19.357Z,7.37
2018-04-12T08:06:22.061Z,6.93
2018-04-12T08:11:24.751Z,6.80
2018-04-12T08:16:27.270Z,6.77
2018-04-12T08:21:29.805Z,6.70
2018-04-12T08:26:33.109Z,6.70
2018-04-12T08:31:36.077Z,6.30
2018-04-12T08:36:39.580Z,7.20
2018-04-12T08:41:42.324Z,6.00
2018-04-12T08:46:45.741Z,7.83
2018-04-12T08:51:48.394Z,7.40
2018-04-12T08:56:50.948Z,5.93
2018-04-12T09:01:53.467Z,7.03
2018-04-12T09:06:57.613Z,7.10
2018-04-12T09:12:00.938Z,6.57
2018-04-12T09:17:03.491Z,6.70
2018-04-12T09:22:06.135Z,6.57
2018-04-12T09:27:08.713Z,6.13
2018-04-12T09:32:11.249Z,6.77
2018-04-12T09:37:13.747Z,6.50
2018-04-12T09:42:16.310Z,6.23
2018-04-12T09:47:19.584Z,6.20
2018-04-12T09:52:22.098Z,6.30
2018-04-12T09:57:24.706Z,6.43
2018-04-12T10:02:28.999Z,6.50
2018-04-12T10:07:37.175Z,6.17
2018-04-12T10:12:39.814Z,5.90
2018-04-12T10:17:42.339Z,5.87
2018-04-12T10:22:44.864Z,6.07
2018-04-12T10:27:47.429Z,6.13
2018-04-12T10:32:50.030Z,6.10
2018-04-12T10:37:52.729Z,5.20
2018-04-12T10:42:56.029Z,5.43
2018-04-12T10:47:58.643Z,5.80
2018-04-12T10:53:01.918Z,5.43
2018-04-12T10:58:04.457Z,5.50
2018-04-12T11:03:06.997Z,6.50
2018-04-12T11:08:09.552Z,6.10
2018-04-12T11:13:12.229Z,6.30
2018-04-12T11:18:15.037Z,5.37
2018-04-12T11:23:17.580Z,5.77
2018-04-12T11:28:20.290Z,6.03
2018-04-12T11:33:22.955Z,5.80
2018-04-12T11:38:25.471Z,4.50
2018-04-12T11:43:28.022Z,5.60
2018-04-12T11:48:30.559Z,5.97
2018-04-12T11:53:33.139Z,4.90
2018-04-12T11:58:35.694Z,5.30
2018-04-12T12:03:38.997Z,5.63
2018-04-12T12:08:41.549Z,4.93
2018-04-12T12:13:44.445Z,5.27
2018-04-12T12:18:47.788Z,4.40
2018-04-12T12:23:50.444Z,5.17
2018-04-12T12:28:53.111Z,5.20
2018-04-12T12:33:56.436Z,4.67
2018-04-12T12:38:58.997Z,5.00
2018-04-12T12:44:07.302Z,5.37
2018-04-12T12:49:09.871Z,5.63
2018-04-12T12:54:12.409Z,5.07
2018-04-12T12:59:14.960Z,5.10
2018-04-12T13:04:26.344Z,4.93
2018-04-12T13:09:34.765Z,4.70
2018-04-12T13:14:37.445Z,5.30
2018-04-12T13:19:40.023Z,5.33
2018-04-12T13:24:48.349Z,5.83
2018-04-12T13:29:56.820Z,5.50
2018-04-12T13:35:00.561Z,5.27
2018-04-12T13:40:03.164Z,4.87
2018-04-12T13:45:05.670Z,5.33
2018-04-12T13:50:14.167Z,5.37
2018-04-12T13:55:17.476Z,4.83
2018-04-12T14:00:31.200Z,5.30
2018-04-12T14:05:33.758Z,4.80
2018-04-12T14:10:36.523Z,5.10
2018-04-12T14:15:45.622Z,5.90
2018-04-12T14:20:48.161Z,5.10
2018-04-12T14:26:02.613Z,5.60
2018-04-12T14:31:05.134Z,4.70
2018-04-12T14:36:08.420Z,5.50
2018-04-12T14:41:12.007Z,5.77
2018-04-12T14:46:14.620Z,6.60
2018-04-12T14:51:17.227Z,5.33
2018-04-12T14:56:19.774Z,5.63
2018-04-12T15:01:22.319Z,5.73
2018-04-12T15:06:36.730Z,6.27
2018-04-12T15:11:39.607Z,5.77
2018-04-12T15:16:42.203Z,6.13
2018-04-12T15:21:45.509Z,5.67
2018-04-12T15:26:48.819Z,6.53
2018-04-12T15:31:51.548Z,6.03
2018-04-12T15:36:54.151Z,5.40
2018-04-12T15:41:57.056Z,6.07
2018-04-12T15:46:59.859Z,5.47
2018-04-12T15:52:09.367Z,6.33
2018-04-12T15:57:17.649Z,6.20
2018-04-12T16:02:20.176Z,6.57
2018-04-12T16:07:22.679Z,6.07
2018-04-12T16:12:31.011Z,6.00
2018-04-12T16:17:33.606Z,5.87
2018-04-12T16:22:42.132Z,5.93
2018-04-12T16:27:44.879Z,5.73
2018-04-12T16:32:53.273Z,6.83
2018-04-12T16:37:55.911Z,6.23
2018-04-12T16:42:58.744Z,6.00
2018-04-12T16:48:13.054Z,6.70
2018-04-12T16:53:15.721Z,6.33
2018-04-12T16:58:18.360Z,7.17
2018-04-12T17:03:20.911Z,7.07
2018-04-12T17:08:29.355Z,6.03
2018-04-12T17:13:31.855Z,6.93
2018-04-12T17:18:40.180Z,6.63
2018-04-12T17:23:43.178Z,6.73
2018-04-12T17:28:57.398Z,7.53
2018-04-12T17:34:06.062Z,7.10
2018-04-12T17:39:14.442Z,6.87
2018-04-12T17:44:17.804Z,6.50
2018-04-12T17:49:26.131Z,7.07
2018-04-12T17:54:28.692Z,7.43
2018-04-12T17:59:37.824Z,7.70
2018-04-12T18:04:40.544Z,8.03
2018-04-12T18:09:43.098Z,8.50
2018-04-12T18:14:45.664Z,7.83
2018-04-12T18:19:48.350Z,8.50
2018-04-12T18:24:56.570Z,7.47
2018-04-12T18:29:59.143Z,8.27
2018-04-12T18:35:01.783Z,7.90
2018-04-12T18:40:10.074Z,8.67
2018-04-12T18:45:15.128Z,8.80
2018-04-12T18:50:18.541Z,8.60
2018-04-12T18:55:21.237Z,8.93
2018-04-12T19:00:24.142Z,8.60
2018-04-12T19:05:33.511Z,8.33
2018-04-12T19:10:41.933Z,8.80
2018-04-12T19:15:45.245Z,8.53
2018-04-12T19:20:53.668Z,9.37
2018-04-12T19:26:01.942Z,9.33
2018-04-12T19:31:04.539Z,9.93
2018-04-12T19:36:12.871Z,8.63
2018-04-12T19:41:15.598Z,10.27
2018-04-12T19:46:18.978Z,9.60
2018-04-12T19:51:21.504Z,9.90
2018-04-12T19:56:24.284Z,9.90
2018-04-12T20:01:26.923Z,10.27
2018-04-12T20:06:29.455Z,10.27
2018-04-12T20:11:31.965Z,10.00
2018-04-12T20:16:34.806Z,10.30
2018-04-12T20:21:38.051Z,10.10
2018-04-12T20:26:40.835Z,10.70
2018-04-12T20:31:43.516Z,10.73
2018-04-12T20:36:47.875Z,10.10
2018-04-12T20:41:50.398Z,10.53
2018-04-12T20:46:58.871Z,11.50
2018-04-12T20:52:01.516Z,11.57
2018-04-12T20:57:04.141Z,11.87
2018-04-12T21:02:06.855Z,11.70
2018-04-12T21:07:16.162Z,11.87
2018-04-12T21:12:24.701Z,12.00
2018-04-12T21:17:27.721Z,12.47
2018-04-12T21:22:30.555Z,12.33
2018-04-12T21:27:33.092Z,10.93
2018-04-12T21:32:35.804Z,11.23
2018-04-12T21:37:44.997Z,11.77
2018-04-12T21:42:47.638Z,12.13
2018-04-12T21:47:55.887Z,12.47
2018-04-12T21:52:58.547Z,12.00
2018-04-12T21:58:01.814Z,12.40
2018-04-12T22:03:10.105Z,12.27
2018-04-12T22:08:18.525Z,13.23
2018-04-12T22:13:26.797Z,12.30
2018-04-12T22:18:29.318Z,11.90
2018-04-12T22:23:38.666Z,11.87
2018-04-12T22:28:41.272Z,12.50
2018-04-12T22:33:49.591Z,12.43
2018-04-12T22:38:52.126Z,12.80
2018-04-12T22:43:55.413Z,12.13
2018-04-12T22:48:58.747Z,12.43
2018-04-12T22:54:08.256Z,12.43
2018-04-12T22:59:10.996Z,12.40
2018-04-12T23:04:19.609Z,11.97
2018-04-12T23:09:22.137Z,12.70
2018-04-12T23:14:24.685Z,12.33
2018-04-12T23:19:27.261Z,12.00
2018-04-12T23:24:29.797Z,12.67
2018-04-12T23:29:32.350Z,12.37
2018-04-12T23:34:35.701Z,12.77
2018-04-12T23:39:39.016Z,12.27
2018-04-12T23:44:42.063Z,12.77
2018-04-12T23:49:50.488Z,11.77
2018-04-12T23:54:58.724Z,12.60
